Meteo Giornale » Osservazioni meteo Stati Uniti (USA) » Lansing Capital City

ore: 01:53 - Osservazioni Meteo Lansing Capital City
Lat. 42° 46' N Lon. 84° 34' W Alt. 262 metri s.l.m.

sereno

22 °C

Sereno

Temp. 24 Ore

21 °C

28 °C

Nord

0 Km/h

Dew point 21 °C

Umidità 94 %

Visibilità  14 Km

Il sole sorge alle ore 07:03

Il sole tramonta alle ore 20:13

Data e Ora Cielo e Fenomeni T °C DP °C Um. % Pres. hPa Vis. km Vento km/h
Oggi h: 01:53 sereno Sereno 22 21 94 1014 14 N 0
Oggi h: 00:53 sereno Sereno 23 21 88 1014 10 N 5.5
Ieri h: 23:53 sereno Sereno 23 21 88 1014 10 S/SO 7.4
Ieri h: 22:53 sereno Sereno 23 21 88 1014 10 S/SO 11.1
Ieri h: 21:53 sereno Sereno 23 20 83 1014 10 S/SO 11.1
Ieri h: 20:53 sereno Sereno 23 20 83 1014 10 S/SO 13
Ieri h: 19:53 sereno Sereno 24 19 73 1014 10 S/SO 16.7
Ieri h: 18:53 sereno Sereno 24 18 69 1013 10 S 16.7
Ieri h: 17:53 molto_nuvoloso Molto Nuvoloso 24 19 73 1014 10 S/SE 16.7
Ieri h: 17:11 coperto Coperto 23 19 78 1014 10 S 14.8
Ieri h: 17:04 nuvoloso_temporali Temporale nelle vicinanze 23 19 78 1014 10 S 13
Ieri h: 16:53 coperto_temporali Temporale 23 19 78 1014 10 S 18.5
Ieri h: 16:38 nuvoloso_temporali Temporale 23 19 78 1014 10 S 20.3
Ieri h: 16:15 nuvoloso_temporali Temporale nelle vicinanze Pioggia 23 21 88 1015 13 S/SO 27.8
Ieri h: 15:53 nuvoloso Nuvoloso 24 20 78 1015 10 S 18.5
Ieri h: 15:38 nuvoloso_temporali Temporale 24 20 78 1015 13 S 18.5
Ieri h: 15:17 nuvoloso_temporali Temporale nelle vicinanze 27 18 57 1016 10 O/SO 14.8
Ieri h: 14:53 molto_nuvoloso Molto Nuvoloso 27 19 61 1015 10 S/SO 20.3
Ieri h: 13:53 molto_nuvoloso Molto Nuvoloso 28 20 61 1015 10 S/SO 18.5
Ieri h: 12:53 coperto Coperto 26 20 69 1016 10 S 14.8
Ieri h: 11:53 coperto_pioggia Pioggia 23 20 83 1017 10 S 9.3
Ieri h: 10:53 nuvoloso Nuvoloso 23 20 83 1017 10 S/SO 11.1
Ieri h: 09:53 sereno Sereno 24 19 73 1017 10 S/SO 13
Ieri h: 08:53 coperto_pioggia Pioggia 22 19 83 1016 14 S 11.1
Ieri h: 07:53 coperto Coperto 21 19 88 1016 10 S 7.4
Ieri h: 06:53 sereno Sereno 22 19 83 1016 10 S 7.4
Ieri h: 05:53 molto_nuvoloso Molto Nuvoloso 22 18 78 1016 10 S 7.4
Ieri h: 04:53 poco_nuvoloso Poco Nuvoloso 21 18 82 1016 10 S 9.3
Ieri h: 03:53 sereno Sereno 21 18 82 1016 10 S 11.1
Ieri h: 02:53 sereno Sereno 21 18 82 1016 10 S 7.4